Time;durP1;ratioP1;P1;durP2;ratioP2;P2;SDS_P1;SDS_P2;PMS_P1;PMS_P2;Temp;Humidity;BMP_temperature;BMP_pressure;BME280_temperature;BME280_humidity;BME280_pressure;Samples;Min_cycle;Max_cycle;Signal;HPM_P1;HPM_P2
2022/07/19 00:02:17;;;;;;;1.70;1.60;;;;;;;19.97;63.52;101741.03;5013464;28;20485;-86
2022/07/19 00:04:42;;;;;;;1.90;1.80;;;;;;;19.93;61.62;101740.31;5013371;28;20055;-85
2022/07/19 00:07:08;;;;;;;1.80;1.70;;;;;;;19.86;64.19;101737.06;5013904;28;20367;-85
2022/07/19 00:09:33;;;;;;;2.43;1.83;;;;;;;19.81;61.87;101731.13;5032552;28;20497;-86
2022/07/19 00:11:58;;;;;;;1.83;1.73;;;;;;;19.79;61.81;101734.69;5032375;28;20029;-85
2022/07/19 00:14:24;;;;;;;2.27;1.90;;;;;;;19.78;61.41;101727.72;5032241;28;20068;-85
2022/07/19 00:16:49;;;;;;;2.00;1.90;;;;;;;19.73;61.69;101734.03;5032726;28;20065;-86
2022/07/19 00:19:15;;;;;;;1.80;1.70;;;;;;;19.71;61.90;101727.09;5032785;28;20025;-85
2022/07/19 00:21:40;;;;;;;1.73;1.63;;;;;;;19.67;62.42;101728.16;5032154;28;20458;-85
2022/07/19 00:24:06;;;;;;;1.70;1.60;;;;;;;19.66;62.21;101726.44;5032408;28;20022;-85
2022/07/19 00:26:31;;;;;;;1.70;1.60;;;;;;;19.66;61.64;101726.44;5032256;28;20067;-85
2022/07/19 00:28:57;;;;;;;1.70;1.60;;;;;;;19.63;62.00;101727.44;5031175;28;20379;-85
2022/07/19 00:31:23;;;;;;;1.83;1.73;;;;;;;19.58;62.61;101719.72;5032951;28;20049;-86
2022/07/19 00:33:49;;;;;;;2.30;1.90;;;;;;;19.57;61.90;101717.13;5032101;28;20488;-86
2022/07/19 00:36:15;;;;;;;2.10;1.90;;;;;;;19.55;61.79;101716.31;5031569;28;20021;-85
2022/07/19 00:38:41;;;;;;;1.98;1.73;;;;;;;19.53;61.81;101724.28;5032274;28;20032;-85
2022/07/19 00:41:06;;;;;;;1.87;1.77;;;;;;;19.51;62.45;101718.22;5032458;28;20034;-85
2022/07/19 00:43:31;;;;;;;1.70;1.60;;;;;;;19.47;62.64;101714.00;5031529;28;20029;-85
2022/07/19 00:45:57;;;;;;;1.83;1.70;;;;;;;19.43;62.49;101710.63;5022180;28;20026;-85
2022/07/19 00:48:23;;;;;;;2.20;2.00;;;;;;;19.42;62.10;101716.78;5012575;28;20030;-84
2022/07/19 00:50:48;;;;;;;1.83;1.73;;;;;;;19.39;62.34;101713.44;5012284;28;20022;-85
2022/07/19 00:53:14;;;;;;;1.90;1.80;;;;;;;19.35;63.07;101712.69;5012543;28;20351;-86
2022/07/19 00:55:41;;;;;;;2.10;1.90;;;;;;;19.31;62.78;101713.72;5012511;28;20449;-85
2022/07/19 00:58:08;;;;;;;1.90;1.80;;;;;;;19.27;62.49;101717.41;5011927;28;20028;-85
2022/07/19 01:00:35;;;;;;;2.00;1.80;;;;;;;19.25;62.53;101711.34;5012935;28;20037;-85
2022/07/19 01:03:01;;;;;;;1.85;1.75;;;;;;;19.24;62.40;101717.50;5011523;28;20030;-86
2022/07/19 01:05:27;;;;;;;2.22;2.00;;;;;;;19.20;62.52;101710.63;5029307;28;20470;-85
2022/07/19 01:07:52;;;;;;;2.00;1.80;;;;;;;19.17;63.75;101703.72;5032105;28;20040;-85
2022/07/19 01:10:18;;;;;;;1.90;1.80;;;;;;;19.12;62.56;101711.78;5031733;28;20460;-85
2022/07/19 01:12:43;;;;;;;2.40;2.20;;;;;;;19.10;62.41;101707.50;5032635;28;20105;-85
2022/07/19 01:15:21;;;;;;;2.10;1.90;;;;;;;19.09;63.14;101716.31;5035721;28;20029;-86
2022/07/19 01:17:47;;;;;;;2.08;1.90;;;;;;;19.05;62.76;101710.31;5035385;28;20021;-86
2022/07/19 01:20:13;;;;;;;1.77;1.67;;;;;;;19.03;62.77;101711.31;5035690;28;20064;-85
2022/07/19 01:22:40;;;;;;;2.05;1.90;;;;;;;19.00;63.32;101714.03;5035805;28;20030;-86
2022/07/19 01:25:06;;;;;;;2.00;1.80;;;;;;;18.96;62.77;101710.66;5034905;28;20022;-86
2022/07/19 01:27:38;;;;;;;1.90;1.80;;;;;;;18.94;64.10;101721.22;5035714;28;20040;-85
2022/07/19 01:30:10;;;;;;;1.92;1.83;;;;;;;18.91;63.03;101720.44;5034930;28;20053;-86
2022/07/19 01:32:35;;;;;;;2.83;2.10;;;;;;;18.88;62.84;101720.56;5035086;28;20041;-86
2022/07/19 01:35:01;;;;;;;2.30;2.10;;;;;;;18.87;63.06;101713.56;5035504;28;20029;-85
2022/07/19 01:37:26;;;;;;;2.00;1.90;;;;;;;18.85;62.87;101716.28;5035531;28;20030;-86
2022/07/19 01:39:51;;;;;;;2.10;2.00;;;;;;;18.82;63.32;101713.75;5034595;28;20024;-86
2022/07/19 01:42:16;;;;;;;2.30;2.10;;;;;;;18.81;63.17;101719.91;5035378;28;20112;-86
2022/07/19 01:44:42;;;;;;;2.30;2.10;;;;;;;18.79;63.08;101721.75;5035764;28;20366;-86
2022/07/19 01:47:07;;;;;;;2.60;2.10;;;;;;;18.77;63.00;101720.97;5034594;28;20061;-86
2022/07/19 01:49:32;;;;;;;2.17;1.90;;;;;;;18.74;64.06;101708.78;5035212;28;20025;-85
2022/07/19 01:51:57;;;;;;;2.40;2.00;;;;;;;18.73;63.07;101711.44;5035221;28;20029;-85
2022/07/19 01:54:23;;;;;;;2.40;2.10;;;;;;;18.71;63.70;101711.53;5034333;28;20105;-86
2022/07/19 01:56:48;;;;;;;2.00;1.90;;;;;;;18.70;63.68;101711.56;5035179;28;20014;-85
2022/07/19 01:59:13;;;;;;;2.23;2.03;;;;;;;18.67;63.46;101716.03;5034730;28;20492;-85
2022/07/19 02:01:38;;;;;;;2.10;2.00;;;;;;;18.66;63.19;101711.69;5035072;28;20030;-85
2022/07/19 02:04:04;;;;;;;2.30;2.10;;;;;;;18.65;63.53;101709.97;5035014;28;20419;-86
2022/07/19 02:06:29;;;;;;;2.20;2.10;;;;;;;18.64;63.61;101710.00;5034049;28;20036;-86
2022/07/19 02:08:54;;;;;;;2.50;2.30;;;;;;;18.63;63.67;101711.78;5034793;28;20037;-85
2022/07/19 02:11:34;;;;;;;2.37;2.00;;;;;;;18.61;63.78;101710.97;5035381;28;20113;-86
2022/07/19 02:14:00;;;;;;;2.40;2.20;;;;;;;18.58;63.91;101708.44;5034039;28;20033;-86
2022/07/19 02:16:25;;;;;;;2.20;2.00;;;;;;;18.57;63.72;101714.66;5034899;28;20462;-86
2022/07/19 02:18:50;;;;;;;2.20;2.00;;;;;;;18.54;63.69;101701.59;5034706;28;20025;-85
2022/07/19 02:21:17;;;;;;;2.03;1.93;;;;;;;18.52;64.26;101692.91;5034773;28;20108;-86
2022/07/19 02:23:42;;;;;;;;;;;;;;;18.49;64.13;101699.13;5034851;28;20432;-85
2022/07/19 02:26:08;;;;;;;2.70;2.20;;;;;;;18.47;64.06;101697.44;5033883;28;20004;-86
2022/07/19 02:28:33;;;;;;;2.33;2.13;;;;;;;18.43;64.24;101691.44;5033915;28;20025;-85
2022/07/19 02:30:58;;;;;;;2.50;2.30;;;;;;;18.42;64.15;101696.78;5034107;28;20120;-85
2022/07/19 02:33:24;;;;;;;2.30;2.10;;;;;;;18.39;64.16;101692.50;5034638;28;20061;-86
2022/07/19 02:35:49;;;;;;;2.20;2.00;;;;;;;18.36;64.29;101688.16;5033954;28;20021;-86
2022/07/19 02:38:14;;;;;;;3.40;2.20;;;;;;;18.32;64.17;101685.72;5034610;28;20466;-86
2022/07/19 02:40:39;;;;;;;2.33;2.13;;;;;;;18.29;64.88;101681.44;5034142;28;20036;-85
2022/07/19 02:43:05;;;;;;;2.30;2.10;;;;;;;18.27;64.76;101693.75;5033027;28;20075;-86
2022/07/19 02:45:30;;;;;;;2.77;2.30;;;;;;;18.26;64.59;101692.03;5034512;28;20026;-86
2022/07/19 02:47:55;;;;;;;2.60;2.40;;;;;;;18.24;65.00;101683.34;5034329;28;20426;-85
2022/07/19 02:50:20;;;;;;;2.47;2.17;;;;;;;18.21;64.88;101686.94;5033543;28;20025;-85
2022/07/19 02:52:46;;;;;;;2.40;2.20;;;;;;;18.18;65.13;101680.94;5033830;28;20552;-85
2022/07/19 02:55:11;;;;;;;2.40;2.20;;;;;;;18.17;65.27;101685.34;5033735;28;20075;-85
2022/07/19 02:57:36;;;;;;;2.27;2.03;;;;;;;18.17;65.14;101681.84;5033294;28;20488;-85
2022/07/19 03:00:10;;;;;;;2.37;2.17;;;;;;;18.13;65.33;101681.09;5033441;28;20477;-86
2022/07/19 03:02:35;;;;;;;2.60;2.20;;;;;;;18.09;65.32;101676.84;5033573;28;20057;-85
2022/07/19 03:05:01;;;;;;;2.30;2.10;;;;;;;18.04;65.39;101676.16;5033856;28;20508;-86
2022/07/19 03:07:26;;;;;;;2.50;2.30;;;;;;;18.04;65.35;101678.78;5034261;28;20370;-85
2022/07/19 03:09:51;;;;;;;3.27;2.30;;;;;;;18.01;65.65;101673.63;5033021;28;20078;-85
2022/07/19 03:12:17;;;;;;;2.47;2.23;;;;;;;17.97;65.65;101672.88;5033933;28;20117;-86
2022/07/19 03:14:42;;;;;;;4.07;2.40;;;;;;;17.93;65.92;101675.63;5033959;28;20025;-86
2022/07/19 03:17:07;;;;;;;2.70;2.27;;;;;;;17.89;65.88;101675.72;5032824;28;20029;-86
2022/07/19 03:19:33;;;;;;;2.83;2.30;;;;;;;17.85;65.44;101668.00;5033535;28;20025;-86
2022/07/19 03:21:58;;;;;;;2.43;2.20;;;;;;;17.84;66.07;101668.88;5033475;28;20025;-86
2022/07/19 03:24:23;;;;;;;2.60;2.40;;;;;;;17.80;66.08;101662.00;5033444;28;20022;-86
2022/07/19 03:26:49;;;;;;;2.53;2.27;;;;;;;17.76;66.11;101663.88;5033806;28;20026;-86
2022/07/19 03:29:14;;;;;;;2.60;2.40;;;;;;;17.71;66.19;101657.94;5033532;28;20103;-87
2022/07/19 03:31:39;;;;;;;2.57;2.37;;;;;;;17.68;66.51;101664.13;5033520;28;20386;-86
2022/07/19 03:34:05;;;;;;;2.43;2.23;;;;;;;17.66;66.43;101659.84;5033569;28;20103;-86
2022/07/19 03:36:30;;;;;;;3.43;2.50;;;;;;;17.64;66.54;101665.16;5032920;28;20040;-86
2022/07/19 03:38:56;;;;;;;2.63;2.43;;;;;;;17.61;66.74;101654.75;5032547;28;20056;-86
2022/07/19 03:41:21;;;;;;;2.70;2.50;;;;;;;17.60;66.54;101658.28;5033362;28;20025;-85
2022/07/19 03:43:47;;;;;;;2.67;2.47;;;;;;;17.56;66.98;101648.78;5033693;28;20113;-87
2022/07/19 03:46:12;;;;;;;3.10;2.40;;;;;;;17.53;70.40;101659.38;5033080;28;20026;-86
2022/07/19 03:48:38;;;;;;;2.60;2.40;;;;;;;17.47;67.72;101662.19;5033398;28;20111;-86
2022/07/19 03:51:03;;;;;;;2.60;2.40;;;;;;;17.42;67.46;101655.34;5033108;28;20029;-86
2022/07/19 03:53:28;;;;;;;3.47;2.30;;;;;;;17.40;67.67;101657.13;5033358;28;20025;-87
2022/07/19 03:55:54;;;;;;;2.63;2.43;;;;;;;17.39;67.31;101662.44;5033614;28;20485;-86
2022/07/19 03:58:19;;;;;;;2.47;2.20;;;;;;;17.35;68.03;101660.81;5032589;28;20025;-86
2022/07/19 04:00:45;;;;;;;3.87;2.50;;;;;;;17.34;67.74;101659.94;5032874;28;20033;-86
2022/07/19 04:03:11;;;;;;;2.88;2.50;;;;;;;17.34;68.46;101667.81;5032825;28;20025;-86
2022/07/19 04:05:36;;;;;;;3.23;2.50;;;;;;;17.33;67.84;101660.88;5032664;28;20390;-86
2022/07/19 04:08:01;;;;;;;2.40;2.20;;;;;;;17.33;68.20;101671.38;5032408;28;20384;-86
2022/07/19 04:10:26;;;;;;;2.63;2.40;;;;;;;17.33;67.64;101666.13;5033203;28;20025;-86
2022/07/19 04:12:52;;;;;;;3.07;2.30;;;;;;;17.32;67.56;101667.03;5032265;28;20446;-85
2022/07/19 04:15:17;;;;;;;2.93;2.33;;;;;;;17.32;67.80;101669.66;5032785;28;20025;-85
2022/07/19 04:17:42;;;;;;;3.00;2.47;;;;;;;17.33;68.23;101671.38;5032621;28;20104;-86
2022/07/19 04:20:08;;;;;;;2.87;2.57;;;;;;;17.34;67.61;101659.94;5031956;28;20029;-86
2022/07/19 04:22:34;;;;;;;2.55;2.22;;;;;;;17.34;67.92;101662.56;5032322;28;20032;-86
2022/07/19 04:24:59;;;;;;;2.43;2.20;;;;;;;17.36;68.07;101667.78;5032113;28;20108;-86
2022/07/19 04:27:24;;;;;;;2.30;2.10;;;;;;;17.38;68.07;101666.81;5032028;28;20021;-85
2022/07/19 04:29:50;;;;;;;2.40;2.20;;;;;;;17.40;68.07;101664.13;5032416;28;20508;-85
2022/07/19 04:32:15;;;;;;;2.80;2.40;;;;;;;17.44;68.40;101668.41;5032276;28;20029;-85
2022/07/19 04:34:40;;;;;;;2.40;2.20;;;;;;;17.47;68.02;101665.69;5031431;28;20466;-85
2022/07/19 04:37:05;;;;;;;2.73;2.20;;;;;;;17.50;68.19;101662.97;5032524;28;20057;-85
2022/07/19 04:39:31;;;;;;;2.60;2.20;;;;;;;17.55;67.73;101668.06;5032527;28;20091;-85
2022/07/19 04:41:56;;;;;;;2.40;2.20;;;;;;;17.60;68.20;101666.16;5031564;28;20504;-85
2022/07/19 04:44:21;;;;;;;2.43;2.23;;;;;;;17.63;69.07;101665.19;5032527;28;20462;-85
2022/07/19 04:46:47;;;;;;;2.30;2.10;;;;;;;17.67;68.25;101670.31;5012843;28;20030;-83
2022/07/19 04:49:12;;;;;;;2.50;2.30;;;;;;;17.71;67.84;101666.66;5016103;28;20444;-89
2022/07/19 04:51:37;;;;;;;3.50;2.30;;;;;;;17.75;68.67;101670.91;5017594;28;20041;-89
2022/07/19 04:54:02;;;;;;;2.10;2.00;;;;;;;17.81;69.19;101671.59;5017526;28;20026;-87
2022/07/19 04:56:28;;;;;;;1.90;1.80;;;;;;;17.84;67.98;101676.78;5017408;28;20394;-85
2022/07/19 04:58:53;;;;;;;2.40;2.13;;;;;;;17.89;68.33;101667.00;5017770;28;20056;-88
2022/07/19 05:01:18;;;;;;;2.50;2.30;;;;;;;17.94;67.90;101665.06;5017338;28;20144;-85
2022/07/19 05:03:43;;;;;;;2.30;2.10;;;;;;;17.99;69.84;101671.06;5017034;28;20037;-84
2022/07/19 05:06:09;;;;;;;2.43;2.20;;;;;;;18.03;68.14;101663.94;5015730;28;20187;-85
2022/07/19 05:08:34;;;;;;;2.43;2.23;;;;;;;18.09;68.36;101660.22;5016785;28;20115;-86
2022/07/19 05:10:59;;;;;;;2.27;2.07;;;;;;;18.16;68.25;101656.47;5015352;28;20026;-85
2022/07/19 05:13:24;;;;;;;2.20;2.00;;;;;;;18.21;68.84;101652.78;5016433;28;20486;-86
2022/07/19 05:15:53;;;;;;;2.17;2.00;;;;;;;18.27;68.20;101662.22;5016825;28;20018;-84
2022/07/19 05:18:18;;;;;;;2.20;2.00;;;;;;;18.33;68.05;101664.66;5015753;28;20084;-86
2022/07/19 05:20:43;;;;;;;1.93;1.83;;;;;;;18.40;68.05;101667.94;5016017;28;20041;-85
2022/07/19 05:23:09;;;;;;;2.23;2.03;;;;;;;18.48;68.85;101665.88;5015371;28;20029;-85
2022/07/19 05:25:34;;;;;;;1.87;1.77;;;;;;;18.54;68.05;101664.81;5017413;28;20494;-86
2022/07/19 05:27:59;;;;;;;2.03;1.80;;;;;;;18.64;67.11;101667.94;5015598;28;20470;-86
2022/07/19 05:30:24;;;;;;;1.80;1.70;;;;;;;18.70;67.15;101667.72;5021839;28;20148;-85
2022/07/19 05:32:50;;;;;;;3.47;2.90;;;;;;;18.78;67.51;101673.56;5035446;28;20021;-84
2022/07/19 05:35:15;;;;;;;2.83;2.53;;;;;;;18.87;67.21;101666.25;5033122;28;20076;-84
2022/07/19 05:37:40;;;;;;;10.43;5.87;;;;;;;18.97;66.40;101663.25;5034598;28;20051;-85
2022/07/19 05:40:06;;;;;;;6.40;4.27;;;;;;;19.06;66.35;101667.31;5035711;28;20021;-86
2022/07/19 05:42:32;;;;;;;4.85;4.20;;;;;;;19.15;65.98;101673.97;5035540;28;20029;-85
2022/07/19 05:44:57;;;;;;;7.90;5.07;;;;;;;19.25;65.40;101666.59;5034586;28;20394;-85
2022/07/19 05:47:22;;;;;;;8.97;5.50;;;;;;;19.34;65.51;101671.50;5035973;28;20032;-85
2022/07/19 05:49:47;;;;;;;4.27;3.57;;;;;;;19.44;65.32;101675.47;5035323;28;20060;-86
2022/07/19 05:52:16;;;;;;;4.40;3.60;;;;;;;19.52;65.10;101675.19;5034711;28;20080;-85
2022/07/19 05:54:41;;;;;;;3.42;3.00;;;;;;;19.61;65.13;101673.97;5035384;28;20048;-85
2022/07/19 05:57:06;;;;;;;2.60;2.40;;;;;;;19.68;64.86;101678.06;5035109;28;20029;-85
2022/07/19 05:59:35;;;;;;;2.50;2.30;;;;;;;19.75;65.04;101679.53;5027010;28;20017;-85
2022/07/19 06:02:00;;;;;;;9.52;5.15;;;;;;;19.83;65.30;101684.47;5034738;28;20029;-84
2022/07/19 06:04:25;;;;;;;6.63;4.40;;;;;;;19.90;65.85;101675.44;5034941;28;20033;-82
2022/07/19 06:06:51;;;;;;;7.67;5.20;;;;;;;19.99;64.98;101673.34;5034613;28;20068;-91
2022/07/19 06:09:16;;;;;;;5.23;3.90;;;;;;;20.05;65.38;101679.22;5034774;28;20437;-83
2022/07/19 06:11:41;;;;;;;4.87;3.87;;;;;;;20.13;64.43;101680.66;5035108;28;20028;-82
2022/07/19 06:14:11;;;;;;;7.20;5.37;;;;;;;20.19;64.28;101678.63;5034283;28;20080;-84
2022/07/19 06:16:38;;;;;;;6.63;4.40;;;;;;;20.29;64.63;101683.50;5035067;28;20029;-84
2022/07/19 06:19:05;;;;;;;8.55;5.93;;;;;;;20.36;64.85;101680.53;5034739;28;20036;-84
2022/07/19 06:21:30;;;;;;;;;;;;;;;20.47;64.26;101681.84;5034822;28;20620;-85
2022/07/19 06:23:56;;;;;;;8.00;5.23;;;;;;;20.75;63.74;101675.38;5033956;28;20003;-85
2022/07/19 06:26:21;;;;;;;7.37;5.20;;;;;;;21.14;62.22;101680.63;5014555;28;20276;-85
2022/07/19 06:28:46;;;;;;;6.97;4.83;;;;;;;21.53;62.39;101681.44;5014862;28;20124;-85
2022/07/19 06:31:13;;;;;;;5.73;4.03;;;;;;;21.95;61.82;101682.06;5014553;28;20108;-83
2022/07/19 06:33:42;;;;;;;6.75;4.65;;;;;;;22.24;60.52;101679.72;5014087;28;20068;-85
2022/07/19 06:36:08;;;;;;;6.75;4.85;;;;;;;22.40;59.74;101682.44;5024463;28;20037;-87
2022/07/19 06:38:34;;;;;;;4.50;3.40;;;;;;;22.73;59.30;101684.25;5014933;28;20026;-86
2022/07/19 06:40:59;;;;;;;5.77;3.50;;;;;;;23.29;59.08;101676.84;5013948;28;20022;-84
2022/07/19 06:43:24;;;;;;;5.63;3.87;;;;;;;23.95;57.29;101679.31;5014414;28;20036;-85
2022/07/19 06:45:49;;;;;;;5.87;3.63;;;;;;;24.53;56.37;101676.75;5033627;28;20029;-85
2022/07/19 06:48:15;;;;;;;5.90;4.00;;;;;;;25.07;54.47;101669.91;5033330;28;20033;-85
2022/07/19 06:50:40;;;;;;;5.10;3.87;;;;;;;25.51;53.72;101668.03;5034587;28;20017;-85
2022/07/19 06:53:05;;;;;;;5.67;4.20;;;;;;;25.85;52.89;101676.41;5034289;28;20064;-87
2022/07/19 06:55:30;;;;;;;4.83;3.60;;;;;;;26.14;50.59;101669.16;5033807;28;20026;-87
2022/07/19 06:57:56;;;;;;;4.70;3.47;;;;;;;26.34;51.75;101667.78;5034405;28;20017;-87
2022/07/19 07:00:21;;;;;;;5.63;3.60;;;;;;;26.54;49.60;101676.16;5034771;28;20100;-87
2022/07/19 07:05:12;;;;;;;4.75;3.70;;;;;;;26.62;49.38;101667.66;5092588;22;20112;-86
2022/07/19 07:07:39;;;;;;;5.60;3.80;;;;;;;26.66;50.71;101672.66;5034362;28;20021;-84
2022/07/19 07:10:06;;;;;;;4.88;3.30;;;;;;;26.70;51.06;101678.59;5032912;28;20025;-83
2022/07/19 07:12:32;;;;;;;4.07;3.30;;;;;;;26.78;51.15;101675.44;5034118;28;20523;-84
2022/07/19 07:14:57;;;;;;;5.35;3.30;;;;;;;26.89;50.22;101664.84;5034113;28;20032;-84
2022/07/19 07:17:23;;;;;;;6.35;3.40;;;;;;;26.93;50.15;101671.66;5033135;28;20033;-84
2022/07/19 07:19:48;;;;;;;4.45;3.47;;;;;;;26.98;50.21;101664.19;5033491;28;20029;-84
2022/07/19 07:22:14;;;;;;;6.37;3.67;;;;;;;27.02;50.72;101663.97;5033962;28;20116;-84
2022/07/19 07:24:39;;;;;;;4.73;3.40;;;;;;;27.06;49.03;101671.63;5033257;28;20029;-84
2022/07/19 07:27:04;;;;;;;4.67;3.43;;;;;;;27.07;50.97;101661.81;5033631;28;20100;-85
2022/07/19 07:29:30;;;;;;;4.87;3.73;;;;;;;27.10;49.40;101665.09;5033561;28;20427;-84
2022/07/19 07:31:55;;;;;;;3.53;3.03;;;;;;;27.19;50.75;101658.25;5018017;28;20040;-84
2022/07/19 07:34:21;;;;;;;4.15;2.90;;;;;;;27.31;50.52;101663.66;5014244;28;20018;-85
2022/07/19 07:36:46;;;;;;;3.43;2.90;;;;;;;27.43;48.91;101660.91;5013573;28;20390;-85
2022/07/19 07:39:12;;;;;;;3.30;2.83;;;;;;;27.49;50.23;101656.97;5013795;28;20383;-86
2022/07/19 07:41:38;;;;;;;4.57;3.13;;;;;;;27.59;49.73;101663.31;5031487;23;20413;-85
2022/07/19 07:44:03;;;;;;;4.50;2.90;;;;;;;27.70;49.60;101658.97;5052577;28;20029;-84
2022/07/19 07:46:29;;;;;;;3.10;2.80;;;;;;;27.79;49.69;101658.31;5053137;28;20032;-82
2022/07/19 07:48:54;;;;;;;3.72;3.20;;;;;;;27.87;49.29;101652.38;5053027;28;20028;-84
2022/07/19 07:51:19;;;;;;;3.53;3.00;;;;;;;27.94;49.38;101653.63;5052402;28;20028;-84
2022/07/19 07:53:45;;;;;;;9.67;3.50;;;;;;;27.99;49.06;101648.75;5053426;28;20370;-85
2022/07/19 07:56:10;;;;;;;6.75;3.20;;;;;;;28.05;48.70;101642.09;5052462;28;20052;-85
2022/07/19 07:58:35;;;;;;;5.80;3.27;;;;;;;28.13;48.78;101647.75;5052571;28;20017;-86
2022/07/19 08:01:01;;;;;;;4.43;3.00;;;;;;;28.23;48.38;101644.34;5052702;28;20083;-86
2022/07/19 08:03:26;;;;;;;4.17;2.70;;;;;;;28.31;48.47;101641.94;5053229;28;20853;-85
2022/07/19 08:06:04;;;;;;;4.22;2.65;;;;;;;28.42;48.14;101638.44;5052966;28;20025;-87
2022/07/19 08:08:51;;;;;;;2.67;2.33;;;;;;;28.54;48.20;101641.94;5053874;28;20013;-92
2022/07/19 08:11:19;;;;;;;4.90;2.63;;;;;;;28.61;47.43;101638.66;5052910;28;20025;-87
2022/07/19 08:13:44;;;;;;;2.67;2.30;;;;;;;28.71;48.07;101629.91;5049571;28;20376;-85
2022/07/19 08:16:16;;;;;;;;;;;;;;;28.82;47.44;101628.06;5051382;28;20029;-85
2022/07/19 08:18:42;;;;;;;4.90;2.50;;;;;;;28.95;46.47;101632.44;5051824;28;19915;-86
2022/07/19 08:21:07;;;;;;;;;;;;;;;29.05;46.93;101635.22;5051698;28;20381;-86
2022/07/19 08:23:35;;;;;;;3.53;2.20;;;;;;;29.17;47.00;101631.53;5051552;28;19920;-86
2022/07/19 08:26:01;;;;;;;3.50;2.20;;;;;;;29.26;46.25;101633.44;5072572;22;20048;-85
2022/07/19 08:28:26;;;;;;;;;;;;;;;29.39;46.63;101629.78;5072168;28;20066;-87
2022/07/19 08:30:51;;;;;;;;;;;;;;;29.49;46.36;101633.38;5060279;28;19912;-87
2022/07/19 08:33:18;;;;;;;2.73;2.03;;;;;;;29.61;45.76;101636.84;5072129;28;20191;-86
2022/07/19 08:35:44;;;;;;;2.20;2.00;;;;;;;29.73;45.83;101625.09;5072764;28;20029;-86
2022/07/19 08:38:09;;;;;;;;;;;;;;;29.88;44.15;101627.44;5072654;28;20029;-87
2022/07/19 08:40:34;;;;;;;;;;;;;;;30.00;45.51;101625.59;5072539;28;19927;-87
2022/07/19 08:43:04;;;;;;;2.37;2.17;;;;;;;30.12;43.20;101621.00;5072707;28;19954;-87
2022/07/19 08:45:30;;;;;;;2.20;2.00;;;;;;;30.20;44.45;101621.16;5072681;28;20056;-86
2022/07/19 08:47:57;;;;;;;1.88;1.77;;;;;;;30.34;45.14;101631.53;5071708;28;20035;-88
2022/07/19 08:50:25;;;;;;;2.00;1.90;;;;;;;30.44;44.54;101628.03;5072831;28;20043;-86
2022/07/19 08:52:51;;;;;;;2.95;2.20;;;;;;;30.54;44.67;101628.94;5072519;28;20025;-87
2022/07/19 08:55:17;;;;;;;2.95;2.15;;;;;;;30.63;43.43;101627.28;5056186;28;20040;-86
2022/07/19 08:57:57;;;;;;;1.92;1.83;;;;;;;30.74;42.43;101629.00;5052307;28;20450;-86
2022/07/19 09:00:26;;;;;;;2.00;1.90;;;;;;;30.85;41.06;101620.00;5069707;28;20468;-87
2022/07/19 09:02:59;;;;;;;2.28;2.10;;;;;;;30.97;43.48;101618.91;5071186;28;20131;-85
2022/07/19 09:05:25;;;;;;;2.08;1.90;;;;;;;31.12;42.31;101611.31;5072812;28;20028;-87
2022/07/19 09:08:05;;;;;;;2.00;1.90;;;;;;;31.25;43.26;101619.06;5072151;28;20086;-87
2022/07/19 09:10:32;;;;;;;2.10;1.75;;;;;;;31.36;42.88;101612.72;5072078;28;20032;-87
2022/07/19 09:13:04;;;;;;;2.97;1.90;;;;;;;31.47;42.77;101609.91;5072119;28;20024;-88
2022/07/19 09:15:54;;;;;;;2.20;2.00;;;;;;;31.59;42.62;101602.53;5072028;28;20190;-87
2022/07/19 09:18:24;;;;;;;4.55;2.90;;;;;;;31.69;39.06;101603.41;5072262;28;20052;-88
2022/07/19 09:20:52;;;;;;;3.25;2.47;;;;;;;31.73;41.43;101607.50;5072234;28;20059;-86
2022/07/19 09:23:18;;;;;;;3.15;2.50;;;;;;;31.85;40.34;101610.88;5069927;28;20029;-88
2022/07/19 09:25:50;;;;;;;2.20;2.10;;;;;;;31.97;41.19;101605.31;5070738;28;20388;-86
2022/07/19 09:28:17;;;;;;;2.50;2.30;;;;;;;32.09;40.91;101598.75;5070196;28;20078;-87
2022/07/19 09:30:45;;;;;;;2.40;2.20;;;;;;;32.23;40.73;101604.63;5071396;28;20025;-88
2022/07/19 09:33:16;;;;;;;2.75;2.40;;;;;;;32.33;40.36;101602.78;5072447;28;20033;-88
2022/07/19 09:35:47;;;;;;;2.33;2.13;;;;;;;32.43;38.75;101605.44;5075632;28;20028;-86
2022/07/19 09:38:22;;;;;;;2.78;2.20;;;;;;;32.56;39.39;101602.38;5074576;28;20539;-87
2022/07/19 09:40:53;;;;;;;3.00;2.38;;;;;;;32.68;36.65;101594.97;5075643;28;20158;-86
2022/07/19 09:43:24;;;;;;;2.22;2.03;;;;;;;32.79;38.25;101590.25;5074794;28;20484;-85
2022/07/19 09:45:50;;;;;;;2.00;1.90;;;;;;;32.95;38.67;101591.41;5075566;28;20051;-86
2022/07/19 09:48:16;;;;;;;2.50;1.80;;;;;;;33.08;38.90;101591.03;5075616;28;20028;-87
2022/07/19 09:50:45;;;;;;;2.20;2.00;;;;;;;33.21;38.21;101586.09;5075111;28;20904;-88
2022/07/19 09:53:11;;;;;;;2.55;2.22;;;;;;;33.31;36.37;101582.47;5074857;28;20048;-87
2022/07/19 09:55:36;;;;;;;2.33;2.13;;;;;;;33.36;33.06;101582.91;5075520;28;20025;-87
2022/07/19 09:58:04;;;;;;;3.35;2.60;;;;;;;33.41;35.87;101586.81;5074623;28;20040;-89
2022/07/19 10:00:30;;;;;;;2.60;2.40;;;;;;;33.51;35.20;101591.25;5075299;28;20111;-87
2022/07/19 10:02:58;;;;;;;3.33;2.40;;;;;;;33.61;35.82;101581.22;5075051;28;20104;-86
2022/07/19 10:05:25;;;;;;;2.80;2.47;;;;;;;33.70;35.04;101582.94;5074727;28;20114;-88
2022/07/19 10:07:51;;;;;;;2.60;2.40;;;;;;;33.83;35.85;101589.75;5073124;28;20388;-88
2022/07/19 10:10:19;;;;;;;3.00;2.60;;;;;;;33.92;34.61;101574.53;5075179;28;20024;-88
2022/07/19 10:12:47;;;;;;;3.00;2.60;;;;;;;34.00;34.59;101578.09;5074958;28;20032;-87
2022/07/19 10:15:15;;;;;;;3.45;2.40;;;;;;;34.14;33.72;101573.97;5074849;28;20024;-87
2022/07/19 10:17:46;;;;;;;2.50;2.30;;;;;;;34.26;33.16;101574.50;5074868;28;20036;-86
2022/07/19 10:20:15;;;;;;;3.20;2.72;;;;;;;34.37;32.37;101570.69;5072596;28;20024;-87
2022/07/19 10:22:41;;;;;;;2.42;2.22;;;;;;;34.46;34.94;101571.56;5074861;28;20392;-87
2022/07/19 10:25:14;;;;;;;2.72;2.25;;;;;;;34.64;33.75;101579.53;5074512;28;20045;-86
2022/07/19 10:27:45;;;;;;;3.10;2.60;;;;;;;34.74;32.99;101566.75;5074170;28;20025;-87
2022/07/19 10:30:10;;;;;;;2.60;2.30;;;;;;;34.86;33.03;101569.13;5074627;28;20028;-87
2022/07/19 10:32:36;;;;;;;2.43;2.23;;;;;;;35.00;33.19;101559.56;5074356;28;20384;-88
2022/07/19 10:35:26;;;;;;;2.50;2.30;;;;;;;35.12;32.84;101560.94;5074608;28;20495;-86
2022/07/19 10:38:07;;;;;;;2.20;2.10;;;;;;;35.23;33.64;101555.19;5074641;28;20033;-87
2022/07/19 10:40:41;;;;;;;2.40;2.20;;;;;;;35.33;33.03;101549.59;5074313;28;20024;-88
2022/07/19 10:43:17;;;;;;;2.63;2.43;;;;;;;35.37;30.94;101545.56;5074186;28;20451;-87
2022/07/19 10:46:07;;;;;;;4.05;2.63;;;;;;;35.46;30.57;101551.81;5060395;28;20032;-87
2022/07/19 10:48:47;;;;;;;2.47;2.20;;;;;;;35.55;32.54;101537.28;5053925;28;20476;-87
2022/07/19 10:51:30;;;;;;;2.60;2.20;;;;;;;35.66;29.18;101536.06;5072503;28;20020;-89
2022/07/19 10:54:02;;;;;;;2.40;2.20;;;;;;;35.76;30.63;101537.72;5074263;28;20033;-86
2022/07/19 10:56:30;;;;;;;3.42;2.40;;;;;;;35.85;28.76;101542.09;5074489;28;20016;-88
2022/07/19 10:59:03;;;;;;;2.83;2.30;;;;;;;35.92;31.49;101536.84;5074251;28;20456;-87
2022/07/19 11:01:32;;;;;;;3.17;2.58;;;;;;;35.94;25.54;101532.09;5075147;28;20471;-88
2022/07/19 11:04:24;;;;;;;4.55;2.65;;;;;;;36.02;28.43;101532.09;5074099;28;20024;-89
2022/07/19 11:06:49;;;;;;;3.75;2.55;;;;;;;36.14;29.19;101524.44;5073911;28;20089;-85
2022/07/19 11:09:15;;;;;;;3.58;2.50;;;;;;;36.25;29.70;101528.59;5074121;28;20024;-87
2022/07/19 11:11:41;;;;;;;2.80;2.40;;;;;;;36.35;29.20;101526.53;5074307;28;20056;-87
2022/07/19 11:14:06;;;;;;;2.25;2.10;;;;;;;36.46;29.38;101520.72;5073650;28;20056;-87
2022/07/19 11:16:31;;;;;;;2.30;2.10;;;;;;;36.56;28.01;101519.66;5073221;28;20016;-90
2022/07/19 11:19:06;;;;;;;2.40;1.90;;;;;;;36.62;25.35;101513.50;5057783;28;20292;-87
2022/07/19 11:21:33;;;;;;;3.33;2.20;;;;;;;36.63;25.29;101507.94;5054646;28;20279;-89
2022/07/19 11:24:00;;;;;;;3.08;2.30;;;;;;;36.66;25.54;101506.72;5053539;28;20029;-89
2022/07/19 11:26:26;;;;;;;3.60;2.20;;;;;;;36.69;26.20;101502.81;5054113;28;20033;-89
2022/07/19 11:28:52;;;;;;;2.83;2.13;;;;;;;36.80;25.58;101496.97;5069760;28;20112;-89